Time;durP1;ratioP1;P1;durP2;ratioP2;P2;SDS_P1;SDS_P2;PMS_P1;PMS_P2;Temp;Humidity;BMP_temperature;BMP_pressure;BME280_temperature;BME280_humidity;BME280_pressure;Samples;Min_cycle;Max_cycle;Signal;HPM_P1;HPM_P2
2022/10/01 00:00:22;;;;;;;19.00;8.27;;;;;;;;;;3349179;42;20552;-61
2022/10/01 00:02:48;;;;;;;19.73;8.50;;;;;;;;;;3348753;42;20116;-59
2022/10/01 00:05:14;;;;;;;18.03;7.93;;;;;;;;;;3349019;42;20179;-58
2022/10/01 00:07:41;;;;;;;19.88;7.82;;;;;;;;;;3348721;42;20084;-59
2022/10/01 00:10:09;;;;;;;19.05;7.93;;;;;;;;;;3348829;42;20572;-61
2022/10/01 00:12:36;;;;;;;20.38;8.10;;;;;;;;;;3346872;42;20148;-61
2022/10/01 00:15:02;;;;;;;23.00;8.23;;;;;;;;;;3348629;42;20156;-60
2022/10/01 00:17:28;;;;;;;17.05;7.75;;;;;;;;;;3348796;42;20102;-60
2022/10/01 00:19:54;;;;;;;18.83;8.35;;;;;;;;;;3348483;42;20088;-61
2022/10/01 00:22:20;;;;;;;18.17;7.80;;;;;;;;;;3345602;42;20473;-60
2022/10/01 00:24:46;;;;;;;20.25;8.10;;;;;;;;;;3346475;42;20108;-58
2022/10/01 00:27:12;;;;;;;17.70;8.00;;;;;;;;;;3348590;42;20092;-58
2022/10/01 00:29:39;;;;;;;16.65;7.50;;;;;;;;;;3348570;42;20124;-60
2022/10/01 00:32:05;;;;;;;21.52;8.25;;;;;;;;;;3347403;42;20085;-59
2022/10/01 00:34:31;;;;;;;19.27;8.73;;;;;;;;;;3348771;42;20663;-58
2022/10/01 00:36:57;;;;;;;18.07;7.37;;;;;;;;;;3348605;42;20657;-60
2022/10/01 00:39:23;;;;;;;20.50;8.20;;;;;;;;;;3348447;42;20932;-58
2022/10/01 00:41:50;;;;;;;18.15;8.02;;;;;;;;;;3348527;42;20559;-59
2022/10/01 00:44:32;;;;;;;18.83;7.85;;;;;;;;;;3348792;42;20104;-61
2022/10/01 00:47:03;;;;;;;18.33;7.97;;;;;;;;;;3348530;42;20118;-59
2022/10/01 00:49:29;;;;;;;22.47;8.80;;;;;;;;;;3347192;42;20093;-60
2022/10/01 00:51:58;;;;;;;18.33;8.05;;;;;;;;;;3347082;42;20170;-59
2022/10/01 00:54:42;;;;;;;20.92;8.25;;;;;;;;;;3339690;42;20097;-61
2022/10/01 00:57:08;;;;;;;21.23;8.10;;;;;;;;;;3340484;42;20092;-60
2022/10/01 00:59:34;;;;;;;19.43;8.03;;;;;;;;;;3347395;42;20353;-60
2022/10/01 01:02:00;;;;;;;19.02;8.30;;;;;;;;;;3347001;42;20100;-60
2022/10/01 01:04:26;;;;;;;19.40;8.57;;;;;;;;;;3348546;42;20875;-60
2022/10/01 01:06:57;;;;;;;19.98;8.07;;;;;;;;;;3348760;42;20170;-59
2022/10/01 01:09:29;;;;;;;19.13;8.57;;;;;;;;;;3348736;42;20502;-61
2022/10/01 01:12:32;;;;;;;18.10;7.87;;;;;;;;;;3347404;42;20136;-62
2022/10/01 01:15:30;;;;;;;20.75;9.05;;;;;;;;;;3345762;42;20120;-61
2022/10/01 01:18:18;;;;;;;22.90;9.88;;;;;;;;;;3347614;42;20152;-60
2022/10/01 01:21:14;;;;;;;19.17;8.32;;;;;;;;;;3348575;42;20103;-61
2022/10/01 01:24:07;;;;;;;22.15;8.57;;;;;;;;;;3344497;42;20100;-59
2022/10/01 01:26:59;;;;;;;22.07;8.40;;;;;;;;;;3348256;42;20097;-59
2022/10/01 01:30:05;;;;;;;24.58;8.50;;;;;;;;;;3347367;42;20089;-58
2022/10/01 01:33:03;;;;;;;22.00;7.82;;;;;;;;;;3346224;42;20093;-61
2022/10/01 01:35:42;;;;;;;21.48;7.85;;;;;;;;;;3345658;42;20112;-61
2022/10/01 01:38:13;;;;;;;22.05;7.70;;;;;;;;;;3343901;42;20594;-60
2022/10/01 01:40:39;;;;;;;21.17;8.37;;;;;;;;;;3347188;42;20105;-60
2022/10/01 01:43:07;;;;;;;20.70;8.52;;;;;;;;;;3346815;42;20160;-58
2022/10/01 01:45:33;;;;;;;18.08;7.97;;;;;;;;;;3339724;42;20650;-59
2022/10/01 01:48:01;;;;;;;18.95;7.80;;;;;;;;;;3346492;42;20117;-59
2022/10/01 01:50:27;;;;;;;21.77;7.95;;;;;;;;;;3346976;42;20581;-59
2022/10/01 01:52:54;;;;;;;24.97;9.10;;;;;;;;;;3339493;42;20116;-62
2022/10/01 01:55:23;;;;;;;21.83;8.45;;;;;;;;;;3346904;42;20284;-59
2022/10/01 01:57:50;;;;;;;23.88;8.50;;;;;;;;;;3346850;42;20143;-59
2022/10/01 02:00:16;;;;;;;22.10;8.00;;;;;;;;;;3346747;42;20097;-59
2022/10/01 02:02:45;;;;;;;20.83;8.40;;;;;;;;;;3348203;42;20100;-59
2022/10/01 02:05:14;;;;;;;21.83;7.88;;;;;;;;;;3346903;42;20464;-60
2022/10/01 02:07:51;;;;;;;22.08;8.15;;;;;;;;;;3346568;42;20148;-59
2022/10/01 02:10:52;;;;;;;21.23;8.65;;;;;;;;;;3349050;42;20103;-61
2022/10/01 02:13:41;;;;;;;21.48;8.63;;;;;;;;;;3345706;42;20088;-62
2022/10/01 02:16:17;;;;;;;20.20;8.40;;;;;;;;;;3348148;42;20095;-62
2022/10/01 02:18:55;;;;;;;21.10;8.60;;;;;;;;;;3338441;42;20081;-62
2022/10/01 02:21:33;;;;;;;20.40;8.77;;;;;;;;;;3346757;42;20099;-61
2022/10/01 02:24:29;;;;;;;19.88;8.35;;;;;;;;;;3344925;42;20085;-59
2022/10/01 02:26:55;;;;;;;29.20;9.13;;;;;;;;;;3345138;42;20085;-59
2022/10/01 02:29:21;;;;;;;20.80;8.20;;;;;;;;;;3339633;42;20088;-61
2022/10/01 02:31:48;;;;;;;19.58;7.85;;;;;;;;;;3340549;42;20575;-58
2022/10/01 02:34:14;;;;;;;19.30;8.55;;;;;;;;;;3348068;42;20167;-61
2022/10/01 02:36:41;;;;;;;27.65;8.98;;;;;;;;;;3348470;42;20605;-59
2022/10/01 02:39:07;;;;;;;21.50;9.27;;;;;;;;;;3347087;42;20093;-59
2022/10/01 02:41:34;;;;;;;20.17;8.53;;;;;;;;;;3348519;42;20085;-62
2022/10/01 02:44:08;;;;;;;21.15;8.65;;;;;;;;;;3348287;42;20085;-59
2022/10/01 02:46:36;;;;;;;25.30;8.65;;;;;;;;;;3349695;42;20085;-58
2022/10/01 02:49:03;;;;;;;22.23;8.75;;;;;;;;;;3349473;42;20089;-59
2022/10/01 02:51:47;;;;;;;23.73;8.77;;;;;;;;;;3348521;42;20874;-60
2022/10/01 02:54:34;;;;;;;24.43;9.20;;;;;;;;;;3349072;42;20077;-60
2022/10/01 02:59:44;;;;;;;20.33;8.60;;;;;;;;;;3348414;42;20143;-60
2022/10/01 03:02:10;;;;;;;20.45;8.82;;;;;;;;;;3349479;42;20160;-58
2022/10/01 03:04:37;;;;;;;25.43;8.53;;;;;;;;;;3349506;42;20132;-57
2022/10/01 03:07:03;;;;;;;21.92;9.10;;;;;;;;;;3349384;42;20099;-61
2022/10/01 03:09:30;;;;;;;19.25;8.13;;;;;;;;;;3349787;42;20181;-60
2022/10/01 03:11:56;;;;;;;24.83;8.40;;;;;;;;;;3349412;42;20096;-61
2022/10/01 03:14:23;;;;;;;20.73;8.23;;;;;;;;;;3349593;42;20136;-59
2022/10/01 03:16:50;;;;;;;21.33;8.13;;;;;;;;;;3349973;42;20104;-59
2022/10/01 03:19:16;;;;;;;19.83;8.05;;;;;;;;;;3349795;42;20093;-60
2022/10/01 03:21:42;;;;;;;18.55;7.68;;;;;;;;;;3349447;42;20088;-60
2022/10/01 03:24:08;;;;;;;18.85;8.38;;;;;;;;;;3349380;42;20164;-60
2022/10/01 03:26:34;;;;;;;20.30;8.50;;;;;;;;;;3349615;42;20084;-60
2022/10/01 03:29:01;;;;;;;19.75;8.00;;;;;;;;;;3349064;42;20093;-57
2022/10/01 03:31:26;;;;;;;19.90;8.40;;;;;;;;;;3349111;42;20120;-61
2022/10/01 03:33:52;;;;;;;18.63;8.13;;;;;;;;;;3349463;42;20480;-58
2022/10/01 03:36:18;;;;;;;18.52;8.45;;;;;;;;;;3349195;42;20172;-60
2022/10/01 03:38:44;;;;;;;19.57;7.83;;;;;;;;;;3349240;42;20076;-60
2022/10/01 03:41:10;;;;;;;19.38;8.18;;;;;;;;;;3349364;42;20159;-60
2022/10/01 03:43:36;;;;;;;21.35;8.25;;;;;;;;;;3348635;42;20085;-59
2022/10/01 03:46:02;;;;;;;20.70;7.90;;;;;;;;;;3349232;42;20160;-60
2022/10/01 03:48:28;;;;;;;20.00;8.10;;;;;;;;;;3349280;42;20085;-61
2022/10/01 03:50:56;;;;;;;20.48;7.25;;;;;;;;;;3349444;42;20139;-61
2022/10/01 03:53:22;;;;;;;20.08;8.13;;;;;;;;;;3349257;42;20093;-59
2022/10/01 03:55:48;;;;;;;22.52;8.40;;;;;;;;;;3349281;42;20155;-62
2022/10/01 03:58:15;;;;;;;20.50;7.97;;;;;;;;;;3349499;42;20148;-56
2022/10/01 04:00:43;;;;;;;19.15;7.75;;;;;;;;;;3349305;42;20081;-60
2022/10/01 04:03:09;;;;;;;19.70;7.70;;;;;;;;;;3347291;42;20152;-61
2022/10/01 04:05:34;;;;;;;17.70;8.20;;;;;;;;;;3348852;42;20081;-62
2022/10/01 04:08:00;;;;;;;19.43;7.40;;;;;;;;;;3348623;42;20081;-61
2022/10/01 04:10:26;;;;;;;19.58;8.13;;;;;;;;;;3348632;42;20491;-61
2022/10/01 04:12:54;;;;;;;21.25;8.13;;;;;;;;;;3340170;42;20598;-59
2022/10/01 04:15:21;;;;;;;21.08;7.80;;;;;;;;;;3348487;42;20562;-59
2022/10/01 04:17:47;;;;;;;23.67;7.90;;;;;;;;;;3345516;42;20093;-61
2022/10/01 04:20:13;;;;;;;19.83;7.45;;;;;;;;;;3348647;42;20136;-59
2022/10/01 04:22:40;;;;;;;20.10;8.07;;;;;;;;;;3348687;42;20208;-59
2022/10/01 04:25:09;;;;;;;16.95;7.35;;;;;;;;;;3348688;42;20084;-59
2022/10/01 04:27:39;;;;;;;19.65;8.45;;;;;;;;;;3344958;42;20077;-59
2022/10/01 04:30:06;;;;;;;21.13;8.43;;;;;;;;;;3348291;42;20149;-59
2022/10/01 04:32:32;;;;;;;21.70;8.18;;;;;;;;;;3347542;42;20117;-62
2022/10/01 04:34:59;;;;;;;23.13;8.27;;;;;;;;;;3348603;42;20105;-61
2022/10/01 04:37:28;;;;;;;20.20;8.55;;;;;;;;;;3348390;42;20208;-59
2022/10/01 04:39:54;;;;;;;19.52;8.27;;;;;;;;;;3348650;42;20603;-58
2022/10/01 04:42:20;;;;;;;19.17;8.40;;;;;;;;;;3348457;42;20081;-59
2022/10/01 04:44:46;;;;;;;21.85;8.65;;;;;;;;;;3348437;42;20096;-58
2022/10/01 04:47:12;;;;;;;24.17;8.50;;;;;;;;;;3348229;42;20101;-58
2022/10/01 04:49:38;;;;;;;20.55;8.10;;;;;;;;;;3348128;42;20089;-60
2022/10/01 04:52:04;;;;;;;21.43;8.43;;;;;;;;;;3348230;42;20099;-62
2022/10/01 04:54:30;;;;;;;21.05;8.82;;;;;;;;;;3348406;42;20107;-63
2022/10/01 04:56:59;;;;;;;22.17;7.95;;;;;;;;;;3347975;42;20188;-56
2022/10/01 04:59:25;;;;;;;20.80;7.85;;;;;;;;;;3349461;42;20080;-60
2022/10/01 05:01:51;;;;;;;15.20;7.47;;;;;;;;;;3352203;42;20119;-60
2022/10/01 05:04:17;;;;;;;16.08;6.93;;;;;;;;;;3350735;42;20095;-60
2022/10/01 05:06:43;;;;;;;20.52;8.15;;;;;;;;;;3348786;42;20095;-58
2022/10/01 05:09:09;;;;;;;15.45;7.10;;;;;;;;;;3347905;42;20135;-60
2022/10/01 05:11:35;;;;;;;17.33;7.47;;;;;;;;;;3350805;42;20156;-59
2022/10/01 05:14:01;;;;;;;20.92;7.40;;;;;;;;;;3351671;42;20084;-60
2022/10/01 05:16:26;;;;;;;15.60;7.28;;;;;;;;;;3349503;42;20088;-60
2022/10/01 05:18:53;;;;;;;17.90;7.00;;;;;;;;;;3346557;42;20456;-59
2022/10/01 05:21:19;;;;;;;16.93;7.50;;;;;;;;;;3348071;42;20790;-59
2022/10/01 05:23:45;;;;;;;13.50;6.75;;;;;;;;;;3348416;42;20093;-63
2022/10/01 05:26:11;;;;;;;15.70;6.72;;;;;;;;;;3348207;42;20093;-60
2022/10/01 05:28:43;;;;;;;15.27;6.47;;;;;;;;;;3348458;42;20099;-60
2022/10/01 05:31:09;;;;;;;16.77;6.80;;;;;;;;;;3345707;42;20088;-58
2022/10/01 05:33:36;;;;;;;14.98;6.50;;;;;;;;;;3348424;42;20144;-60
2022/10/01 05:36:05;;;;;;;14.95;6.30;;;;;;;;;;3346644;42;20100;-60
2022/10/01 05:38:35;;;;;;;15.25;6.70;;;;;;;;;;3349336;42;20089;-60
2022/10/01 05:41:03;;;;;;;14.48;6.43;;;;;;;;;;3350724;42;20500;-60
2022/10/01 05:43:30;;;;;;;14.90;6.57;;;;;;;;;;3349987;42;20522;-60
2022/10/01 05:46:02;;;;;;;15.75;6.18;;;;;;;;;;3351499;42;20144;-60
2022/10/01 05:48:28;;;;;;;15.25;6.53;;;;;;;;;;3350043;42;20088;-60
2022/10/01 05:50:54;;;;;;;15.95;7.32;;;;;;;;;;3346599;42;20091;-60
2022/10/01 05:53:20;;;;;;;18.25;6.65;;;;;;;;;;3343063;42;20077;-61
2022/10/01 05:55:46;;;;;;;14.00;6.57;;;;;;;;;;3344226;42;20099;-62
2022/10/01 05:58:12;;;;;;;16.17;6.35;;;;;;;;;;3345596;42;20081;-62
2022/10/01 06:00:39;;;;;;;13.45;6.30;;;;;;;;;;3351222;42;20089;-60
2022/10/01 06:03:05;;;;;;;16.38;6.20;;;;;;;;;;3352301;42;20535;-59
2022/10/01 06:05:32;;;;;;;14.97;6.23;;;;;;;;;;3349923;42;20105;-59
2022/10/01 06:07:58;;;;;;;12.55;5.82;;;;;;;;;;3352873;42;20108;-59
2022/10/01 06:10:24;;;;;;;21.23;6.10;;;;;;;;;;3350020;42;20775;-60
2022/10/01 06:12:50;;;;;;;14.88;6.15;;;;;;;;;;3350795;42;20756;-63
2022/10/01 06:15:17;;;;;;;12.00;5.90;;;;;;;;;;3347619;42;20080;-61
2022/10/01 06:17:44;;;;;;;12.27;5.40;;;;;;;;;;3349393;42;20084;-61
2022/10/01 06:20:12;;;;;;;10.88;5.05;;;;;;;;;;3350131;42;20088;-63
2022/10/01 06:22:39;;;;;;;13.85;6.15;;;;;;;;;;3348869;42;20099;-63
2022/10/01 06:25:06;;;;;;;12.95;5.90;;;;;;;;;;3347907;42;20081;-61
2022/10/01 06:27:32;;;;;;;13.32;5.75;;;;;;;;;;3349511;42;20096;-63
2022/10/01 06:29:58;;;;;;;15.80;5.60;;;;;;;;;;3349081;42;20088;-61
2022/10/01 06:32:24;;;;;;;12.45;5.40;;;;;;;;;;3349078;42;20093;-60
2022/10/01 06:34:50;;;;;;;11.57;5.20;;;;;;;;;;3350363;42;20097;-62
2022/10/01 06:37:16;;;;;;;10.35;4.90;;;;;;;;;;3349309;42;20503;-64
2022/10/01 06:39:43;;;;;;;11.13;4.90;;;;;;;;;;3349368;42;20487;-62
2022/10/01 06:42:09;;;;;;;12.23;4.72;;;;;;;;;;3349265;42;20084;-61
2022/10/01 06:44:35;;;;;;;11.23;5.03;;;;;;;;;;3348795;42;20094;-64
2022/10/01 06:47:01;;;;;;;11.18;5.32;;;;;;;;;;3349150;42;20076;-62
2022/10/01 06:49:27;;;;;;;10.97;5.17;;;;;;;;;;3349017;42;20080;-62
2022/10/01 06:54:42;;;;;;;12.75;4.70;;;;;;;;;;3347891;42;20188;-62
2022/10/01 06:57:08;;;;;;;14.48;5.28;;;;;;;;;;3347608;42;20147;-62
2022/10/01 06:59:36;;;;;;;11.50;4.90;;;;;;;;;;3348648;42;20091;-61
2022/10/01 07:02:03;;;;;;;13.30;4.87;;;;;;;;;;3349083;42;20100;-61
2022/10/01 07:04:29;;;;;;;16.10;5.13;;;;;;;;;;3348094;42;20144;-63
2022/10/01 07:06:56;;;;;;;11.20;4.90;;;;;;;;;;3348378;42;20088;-64
2022/10/01 07:09:25;;;;;;;11.20;4.50;;;;;;;;;;3348911;42;20227;-63
2022/10/01 07:11:52;;;;;;;12.35;4.78;;;;;;;;;;3348762;42;20590;-63
2022/10/01 07:14:20;;;;;;;11.53;5.00;;;;;;;;;;3348855;42;20144;-63
2022/10/01 07:16:45;;;;;;;10.82;4.72;;;;;;;;;;3348920;42;20597;-61
2022/10/01 07:19:11;;;;;;;14.48;4.93;;;;;;;;;;3345703;42;20140;-64
2022/10/01 07:21:37;;;;;;;11.95;4.90;;;;;;;;;;3348599;42;20555;-62
2022/10/01 07:24:03;;;;;;;10.80;4.20;;;;;;;;;;3348708;42;20148;-62
2022/10/01 07:26:29;;;;;;;12.40;5.40;;;;;;;;;;3348503;42;20547;-61
2022/10/01 07:28:55;;;;;;;11.65;4.65;;;;;;;;;;3348767;42;20080;-62
2022/10/01 07:31:22;;;;;;;12.87;4.47;;;;;;;;;;3348721;42;20587;-62
2022/10/01 07:33:48;;;;;;;14.95;4.68;;;;;;;;;;3348628;42;20131;-61
2022/10/01 07:36:15;;;;;;;12.05;5.05;;;;;;;;;;3348430;42;20487;-61
2022/10/01 07:38:42;;;;;;;17.27;5.75;;;;;;;;;;3348034;42;20646;-65
2022/10/01 07:41:09;;;;;;;12.00;5.55;;;;;;;;;;3348419;42;20145;-63
2022/10/01 07:43:35;;;;;;;11.20;5.07;;;;;;;;;;3348337;42;20480;-62
2022/10/01 07:46:02;;;;;;;10.95;4.70;;;;;;;;;;3348039;42;20084;-64
2022/10/01 07:48:28;;;;;;;12.25;4.78;;;;;;;;;;3348544;42;20084;-62
2022/10/01 07:50:54;;;;;;;11.13;5.10;;;;;;;;;;3348667;42;20081;-61
2022/10/01 07:53:22;;;;;;;11.95;4.70;;;;;;;;;;3348561;42;20179;-62
2022/10/01 07:55:48;;;;;;;11.40;5.23;;;;;;;;;;3348752;42;20681;-62
2022/10/01 07:58:14;;;;;;;11.20;5.13;;;;;;;;;;3348634;42;20619;-61
2022/10/01 08:00:41;;;;;;;12.45;5.03;;;;;;;;;;3346766;42;20097;-61
2022/10/01 08:03:10;;;;;;;10.35;4.68;;;;;;;;;;3347938;42;20097;-62
2022/10/01 08:05:38;;;;;;;12.05;4.82;;;;;;;;;;3348235;42;20104;-62
2022/10/01 08:08:07;;;;;;;10.43;5.07;;;;;;;;;;3346947;42;20076;-61
2022/10/01 08:10:34;;;;;;;10.23;4.60;;;;;;;;;;3348089;42;20124;-61
2022/10/01 08:13:13;;;;;;;11.50;4.38;;;;;;;;;;3348488;42;21333;-63
2022/10/01 08:15:40;;;;;;;10.43;4.93;;;;;;;;;;3346746;42;20093;-60
2022/10/01 08:18:06;;;;;;;11.55;4.50;;;;;;;;;;3348401;42;20093;-63
2022/10/01 08:20:32;;;;;;;12.20;4.80;;;;;;;;;;3348390;42;20092;-64
2022/10/01 08:23:10;;;;;;;11.95;4.80;;;;;;;;;;3348225;42;20176;-62
2022/10/01 08:25:36;;;;;;;15.50;5.10;;;;;;;;;;3348117;42;20408;-62
2022/10/01 08:28:03;;;;;;;11.13;4.72;;;;;;;;;;3347474;42;20092;-61
2022/10/01 08:30:29;;;;;;;12.80;4.90;;;;;;;;;;3347871;42;20088;-64
2022/10/01 08:32:55;;;;;;;9.73;4.63;;;;;;;;;;3348536;42;20084;-62
2022/10/01 08:35:22;;;;;;;10.80;4.68;;;;;;;;;;3348284;42;20103;-60
2022/10/01 08:37:48;;;;;;;15.82;4.75;;;;;;;;;;3348551;42;20081;-61
2022/10/01 08:40:14;;;;;;;9.85;4.35;;;;;;;;;;3348683;42;20107;-60
2022/10/01 08:42:50;;;;;;;10.55;4.90;;;;;;;;;;3348275;42;20591;-61
2022/10/01 08:45:55;;;;;;;13.27;4.83;;;;;;;;;;3347156;42;20089;-61
2022/10/01 08:48:30;;;;;;;13.13;4.70;;;;;;;;;;3348387;42;20551;-63
2022/10/01 08:51:02;;;;;;;11.85;4.88;;;;;;;;;;3345203;42;20117;-65
2022/10/01 08:53:35;;;;;;;9.02;4.32;;;;;;;;;;3346897;42;20093;-64
2022/10/01 08:56:01;;;;;;;8.90;4.25;;;;;;;;;;3348087;42;20168;-63
2022/10/01 08:58:39;;;;;;;10.30;3.70;;;;;;;;;;3346567;42;20171;-64
2022/10/01 09:01:05;;;;;;;10.95;4.40;;;;;;;;;;3346638;42;20088;-61
2022/10/01 09:03:31;;;;;;;11.50;4.80;;;;;;;;;;3344522;42;20096;-61
2022/10/01 09:06:21;;;;;;;12.30;4.40;;;;;;;;;;3338675;42;20073;-62
2022/10/01 09:09:10;;;;;;;12.67;4.40;;;;;;;;;;3346027;42;20089;-60
2022/10/01 09:11:41;;;;;;;10.95;3.95;;;;;;;;;;3345710;42;20233;-62
2022/10/01 09:14:23;;;;;;;9.32;4.25;;;;;;;;;;3346537;42;20136;-62
2022/10/01 09:17:09;;;;;;;10.48;4.90;;;;;;;;;;3345654;42;20119;-60
2022/10/01 09:20:03;;;;;;;8.73;4.50;;;;;;;;;;3347432;42;20244;-64
2022/10/01 09:22:47;;;;;;;9.03;4.00;;;;;;;;;;3346406;42;20511;-62
2022/10/01 09:25:24;;;;;;;10.25;4.32;;;;;;;;;;3339628;42;20092;-63
2022/10/01 09:27:55;;;;;;;13.77;5.03;;;;;;;;;;3348071;42;20093;-63
2022/10/01 09:30:23;;;;;;;11.93;4.60;;;;;;;;;;3344845;42;20595;-61
2022/10/01 09:33:03;;;;;;;9.90;4.93;;;;;;;;;;3339195;42;20124;-64
2022/10/01 09:35:31;;;;;;;10.67;4.50;;;;;;;;;;3339285;42;20182;-64
2022/10/01 09:38:03;;;;;;;12.27;4.60;;;;;;;;;;3348177;42;20167;-61
2022/10/01 09:40:56;;;;;;;11.70;4.50;;;;;;;;;;3347562;42;20104;-59
2022/10/01 09:43:23;;;;;;;11.43;4.75;;;;;;;;;;3346778;42;20591;-60
2022/10/01 09:45:50;;;;;;;10.55;4.57;;;;;;;;;;3348243;42;20212;-61
2022/10/01 09:48:38;;;;;;;9.27;4.40;;;;;;;;;;3349490;42;20092;-61
2022/10/01 09:51:12;;;;;;;8.32;3.60;;;;;;;;;;3347061;42;20091;-64
2022/10/01 09:54:02;;;;;;;9.73;3.65;;;;;;;;;;3347947;42;20140;-64
2022/10/01 09:56:41;;;;;;;8.65;3.50;;;;;;;;;;3347791;42;20562;-65
2022/10/01 09:59:13;;;;;;;9.23;3.60;;;;;;;;;;3346257;42;20097;-64
2022/10/01 10:01:47;;;;;;;8.67;3.30;;;;;;;;;;3347969;42;20100;-60
2022/10/01 10:04:19;;;;;;;7.53;3.65;;;;;;;;;;3348337;42;20575;-60
2022/10/01 10:06:45;;;;;;;9.55;4.20;;;;;;;;;;3346411;42;20583;-61
2022/10/01 10:09:18;;;;;;;10.68;4.40;;;;;;;;;;3347985;42;20095;-62
2022/10/01 10:11:44;;;;;;;10.40;4.00;;;;;;;;;;3347537;42;20099;-63
2022/10/01 10:14:18;;;;;;;9.23;3.97;;;;;;;;;;3349176;42;20097;-62
2022/10/01 10:16:46;;;;;;;8.35;3.85;;;;;;;;;;3345970;42;20562;-63
2022/10/01 10:19:23;;;;;;;8.35;4.05;;;;;;;;;;3349488;42;20081;-61
2022/10/01 10:21:54;;;;;;;9.15;3.92;;;;;;;;;;3340737;42;20093;-62
2022/10/01 10:24:25;;;;;;;8.57;3.60;;;;;;;;;;3349530;42;20096;-63
2022/10/01 10:26:53;;;;;;;10.23;3.90;;;;;;;;;;3348130;42;20089;-59
2022/10/01 10:29:30;;;;;;;9.85;4.25;;;;;;;;;;3348812;42;20183;-61
2022/10/01 10:31:57;;;;;;;8.20;3.70;;;;;;;;;;3348990;42;20195;-61
2022/10/01 10:34:33;;;;;;;11.52;4.18;;;;;;;;;;3347595;42;20128;-62
2022/10/01 10:37:04;;;;;;;8.60;3.65;;;;;;;;;;3341093;42;20125;-63
2022/10/01 10:39:35;;;;;;;8.60;3.73;;;;;;;;;;3347887;42;20500;-63
2022/10/01 10:42:02;;;;;;;7.82;3.50;;;;;;;;;;3349615;42;20115;-62
2022/10/01 10:44:35;;;;;;;8.65;3.70;;;;;;;;;;3347796;42;20096;-62
2022/10/01 10:47:04;;;;;;;8.75;3.80;;;;;;;;;;3348017;42;20558;-63
2022/10/01 10:49:31;;;;;;;9.45;3.85;;;;;;;;;;3349269;42;20167;-64
2022/10/01 10:51:59;;;;;;;9.63;3.60;;;;;;;;;;3347346;42;20104;-60
2022/10/01 10:54:32;;;;;;;7.93;3.75;;;;;;;;;;3348729;42;20730;-63
2022/10/01 10:57:01;;;;;;;8.80;3.97;;;;;;;;;;3349371;42;20108;-59
2022/10/01 10:59:30;;;;;;;7.97;3.60;;;;;;;;;;3348713;42;20125;-65
2022/10/01 11:01:57;;;;;;;10.32;4.05;;;;;;;;;;3346602;42;20141;-63
2022/10/01 11:04:27;;;;;;;8.37;3.57;;;;;;;;;;3348822;42;20140;-62
2022/10/01 11:06:54;;;;;;;10.82;3.70;;;;;;;;;;3349706;42;20081;-60
2022/10/01 11:09:20;;;;;;;11.45;3.97;;;;;;;;;;3347299;42;20085;-63
2022/10/01 11:11:54;;;;;;;11.40;3.90;;;;;;;;;;3347483;42;20567;-62
2022/10/01 11:14:48;;;;;;;11.35;3.90;;;;;;;;;;3340370;42;20092;-60
2022/10/01 11:17:33;;;;;;;11.13;4.00;;;;;;;;;;3346199;42;20143;-61
2022/10/01 11:20:23;;;;;;;8.80;4.03;;;;;;;;;;3349096;42;20099;-61
2022/10/01 11:23:15;;;;;;;8.85;3.80;;;;;;;;;;3347076;42;20104;-62
2022/10/01 11:26:09;;;;;;;10.25;4.65;;;;;;;;;;3340706;42;20131;-63
2022/10/01 11:28:47;;;;;;;12.40;4.32;;;;;;;;;;3346825;42;20568;-63
2022/10/01 11:31:21;;;;;;;8.97;4.33;;;;;;;;;;3347566;42;20140;-59
2022/10/01 11:34:13;;;;;;;10.57;4.43;;;;;;;;;;3346619;42;20115;-63
2022/10/01 11:36:42;;;;;;;13.45;5.90;;;;;;;;;;3352535;42;20100;-65
2022/10/01 11:39:15;;;;;;;11.70;4.72;;;;;;;;;;3349873;42;20105;-60
2022/10/01 11:41:47;;;;;;;11.48;5.07;;;;;;;;;;3347345;42;20107;-65
2022/10/01 11:44:15;;;;;;;10.63;4.73;;;;;;;;;;3347190;42;20096;-64
2022/10/01 11:46:50;;;;;;;11.30;5.07;;;;;;;;;;3348072;42;20209;-62
2022/10/01 11:49:21;;;;;;;9.90;5.13;;;;;;;;;;3347318;42;20140;-62
2022/10/01 11:51:51;;;;;;;12.73;5.38;;;;;;;;;;3348264;42;20085;-62
2022/10/01 11:54:20;;;;;;;17.50;5.75;;;;;;;;;;3347290;42;20490;-62
2022/10/01 11:59:36;;;;;;;11.68;5.20;;;;;;;;;;3346138;42;20117;-62
2022/10/01 12:02:24;;;;;;;12.10;5.35;;;;;;;;;;3347146;42;20095;-62
2022/10/01 12:04:56;;;;;;;11.77;5.50;;;;;;;;;;3348988;42;20112;-66
2022/10/01 12:07:37;;;;;;;10.60;5.50;;;;;;;;;;3347155;42;20507;-62
2022/10/01 12:10:20;;;;;;;10.73;4.97;;;;;;;;;;3345773;42;20159;-61
2022/10/01 12:13:14;;;;;;;15.60;6.32;;;;;;;;;;3346466;42;20567;-64
2022/10/01 12:15:53;;;;;;;11.48;5.10;;;;;;;;;;3347523;42;20115;-67
2022/10/01 12:18:30;;;;;;;13.35;5.53;;;;;;;;;;3348324;42;20095;-61
2022/10/01 12:21:00;;;;;;;8.55;4.93;;;;;;;;;;3346739;42;20131;-64
2022/10/01 12:23:29;;;;;;;10.90;5.70;;;;;;;;;;3339583;42;20156;-62
2022/10/01 12:26:16;;;;;;;12.57;5.45;;;;;;;;;;3346925;42;20093;-62
2022/10/01 12:29:11;;;;;;;10.70;5.35;;;;;;;;;;3346485;42;20093;-61
2022/10/01 12:31:48;;;;;;;11.15;5.32;;;;;;;;;;3348009;42;20107;-61
2022/10/01 12:34:32;;;;;;;10.98;5.97;;;;;;;;;;3345897;42;20096;-67
2022/10/01 12:37:11;;;;;;;11.53;5.77;;;;;;;;;;3346560;42;20502;-65
2022/10/01 12:40:15;;;;;;;10.95;5.82;;;;;;;;;;3346560;42;20190;-63
2022/10/01 12:43:04;;;;;;;10.00;5.55;;;;;;;;;;3346220;42;20111;-62
2022/10/01 12:45:42;;;;;;;12.02;5.15;;;;;;;;;;3346902;42;20138;-62
2022/10/01 12:48:26;;;;;;;12.00;5.40;;;;;;;;;;3346883;42;20131;-61
2022/10/01 12:51:07;;;;;;;12.37;5.83;;;;;;;;;;3346745;42;20144;-63
2022/10/01 12:53:49;;;;;;;11.85;5.55;;;;;;;;;;3345787;42;20103;-64
2022/10/01 12:56:39;;;;;;;10.68;5.75;;;;;;;;;;3345087;42;20457;-62
2022/10/01 12:59:08;;;;;;;13.02;5.95;;;;;;;;;;3346708;42;20092;-65
2022/10/01 13:01:47;;;;;;;11.57;5.70;;;;;;;;;;3347617;42;20163;-62
2022/10/01 13:04:31;;;;;;;13.30;5.97;;;;;;;;;;3343549;42;20163;-65
2022/10/01 13:07:08;;;;;;;12.82;5.68;;;;;;;;;;3348849;42;20085;-61
2022/10/01 13:09:52;;;;;;;12.52;6.00;;;;;;;;;;3347709;42;20080;-63
2022/10/01 13:12:18;;;;;;;12.25;5.47;;;;;;;;;;3347711;42;20089;-61
2022/10/01 13:14:44;;;;;;;10.33;5.33;;;;;;;;;;3348655;42;20100;-65
2022/10/01 13:17:45;;;;;;;12.30;5.23;;;;;;;;;;3346372;42;20699;-63
2022/10/01 13:20:17;;;;;;;12.48;5.47;;;;;;;;;;3339977;42;20112;-62
2022/10/01 13:23:04;;;;;;;10.80;5.15;;;;;;;;;;3348696;42;20096;-62
2022/10/01 13:25:36;;;;;;;11.38;5.38;;;;;;;;;;3343354;42;20582;-62
2022/10/01 13:28:14;;;;;;;11.60;5.37;;;;;;;;;;3346361;42;20654;-62
2022/10/01 13:30:52;;;;;;;9.70;5.43;;;;;;;;;;3346336;42;20100;-62
2022/10/01 13:33:26;;;;;;;11.73;5.20;;;;;;;;;;3348122;42;20077;-63
2022/10/01 13:35:59;;;;;;;11.70;5.53;;;;;;;;;;3346430;42;20171;-61
2022/10/01 13:38:39;;;;;;;9.50;4.85;;;;;;;;;;3347811;42;20559;-62
2022/10/01 13:41:27;;;;;;;9.53;5.50;;;;;;;;;;3347499;42;20610;-62
2022/10/01 13:44:07;;;;;;;11.70;5.50;;;;;;;;;;3347773;42;20167;-64
2022/10/01 13:46:35;;;;;;;10.25;5.38;;;;;;;;;;3344701;42;20093;-65
2022/10/01 13:49:06;;;;;;;11.70;6.03;;;;;;;;;;3345093;42;20204;-61
2022/10/01 13:51:36;;;;;;;13.07;5.43;;;;;;;;;;3346581;42;20163;-64
2022/10/01 13:54:02;;;;;;;11.80;5.47;;;;;;;;;;3349184;42;20101;-61
2022/10/01 13:56:34;;;;;;;13.70;5.18;;;;;;;;;;3350607;42;20111;-64
2022/10/01 13:59:00;;;;;;;12.55;5.40;;;;;;;;;;3348044;42;20586;-61
2022/10/01 14:01:29;;;;;;;10.65;5.20;;;;;;;;;;3351212;42;20155;-60
2022/10/01 14:04:13;;;;;;;11.30;5.57;;;;;;;;;;3351300;42;20089;-63
2022/10/01 14:06:49;;;;;;;11.27;5.57;;;;;;;;;;3350678;42;20140;-62
2022/10/01 14:09:34;;;;;;;9.35;4.93;;;;;;;;;;3350934;42;20140;-62
2022/10/01 14:17:43;;;;;;;13.73;5.55;;;;;;;;;;3350549;42;20105;-61
2022/10/01 14:20:26;;;;;;;10.30;5.27;;;;;;;;;;3350003;42;20123;-62
2022/10/01 14:22:52;;;;;;;12.40;5.95;;;;;;;;;;3348175;42;20088;-62
2022/10/01 14:25:27;;;;;;;11.95;5.22;;;;;;;;;;3351175;42;20481;-61
2022/10/01 14:28:24;;;;;;;12.75;5.35;;;;;;;;;;3342885;42;20163;-60
2022/10/01 14:31:12;;;;;;;11.57;5.40;;;;;;;;;;3347549;42;20085;-62
2022/10/01 14:34:08;;;;;;;11.90;5.43;;;;;;;;;;3347936;42;20103;-62
2022/10/01 14:36:40;;;;;;;12.32;5.05;;;;;;;;;;3346912;42;20104;-61
2022/10/01 14:39:17;;;;;;;11.60;5.65;;;;;;;;;;3347588;42;20092;-63
2022/10/01 14:41:44;;;;;;;14.27;5.70;;;;;;;;;;3348783;42;20148;-65
2022/10/01 14:44:19;;;;;;;10.95;5.00;;;;;;;;;;3348081;42;20480;-65
2022/10/01 14:46:45;;;;;;;13.63;5.83;;;;;;;;;;3347891;42;20551;-61
2022/10/01 14:49:19;;;;;;;12.27;5.40;;;;;;;;;;3349121;42;20096;-64
2022/10/01 14:51:50;;;;;;;13.63;5.10;;;;;;;;;;3349127;42;20088;-61
2022/10/01 14:54:16;;;;;;;17.67;7.35;;;;;;;;;;3347888;42;20092;-64
2022/10/01 14:56:42;;;;;;;13.87;5.20;;;;;;;;;;3340087;42;20210;-62
2022/10/01 14:59:12;;;;;;;12.23;5.22;;;;;;;;;;3349151;42;20076;-64
2022/10/01 15:01:38;;;;;;;13.43;5.35;;;;;;;;;;3347439;42;20227;-64
2022/10/01 15:04:13;;;;;;;13.23;4.72;;;;;;;;;;3349029;42;20125;-62
2022/10/01 15:06:42;;;;;;;12.80;5.13;;;;;;;;;;3348887;42;20490;-62
2022/10/01 15:09:13;;;;;;;10.63;4.72;;;;;;;;;;3349111;42;20081;-63
2022/10/01 15:11:39;;;;;;;12.07;5.95;;;;;;;;;;3347307;42;20103;-63